sensor_id;sensor_type;location;lat;lon;timestamp;pressure;altitude;pressure_sealevel;temperature;humidity
50977;BME280;36992;48.200;12.418;2023-02-04T00:00:55;97438.72;;;8.03;60.42
50977;BME280;36992;48.200;12.418;2023-02-04T00:03:21;97432.53;;;8.02;60.49
50977;BME280;36992;48.200;12.418;2023-02-04T00:05:48;97432.78;;;8.01;60.66
50977;BME280;36992;48.200;12.418;2023-02-04T00:08:14;97440.31;;;8.04;60.33
50977;BME280;36992;48.200;12.418;2023-02-04T00:10:41;97435.50;;;8.06;59.69
50977;BME280;36992;48.200;12.418;2023-02-04T00:13:07;97442.47;;;8.07;59.75
50977;BME280;36992;48.200;12.418;2023-02-04T00:15:34;97443.56;;;8.06;59.82
50977;BME280;36992;48.200;12.418;2023-02-04T00:18:02;97455.91;;;8.07;59.63
50977;BME280;36992;48.200;12.418;2023-02-04T00:20:29;97461.25;;;8.07;59.69
50977;BME280;36992;48.200;12.418;2023-02-04T00:22:56;97461.25;;;8.07;59.82
50977;BME280;36992;48.200;12.418;2023-02-04T00:25:23;97448.41;;;8.09;59.77
50977;BME280;36992;48.200;12.418;2023-02-04T00:27:49;97459.94;;;8.09;59.61
50977;BME280;36992;48.200;12.418;2023-02-04T00:30:16;97455.66;;;8.08;59.65
50977;BME280;36992;48.200;12.418;2023-02-04T00:32:43;97451.63;;;8.11;59.71
50977;BME280;36992;48.200;12.418;2023-02-04T00:35:11;97452.19;;;8.13;59.94
50977;BME280;36992;48.200;12.418;2023-02-04T00:37:38;97475.84;;;8.16;59.22
50977;BME280;36992;48.200;12.418;2023-02-04T00:40:05;97461.88;;;8.14;59.54
50977;BME280;36992;48.200;12.418;2023-02-04T00:42:32;97463.50;;;8.15;58.87
50977;BME280;36992;48.200;12.418;2023-02-04T00:44:58;97468.31;;;8.18;59.11
50977;BME280;36992;48.200;12.418;2023-02-04T00:47:25;97471.59;;;8.20;59.22
50977;BME280;36992;48.200;12.418;2023-02-04T00:49:51;97483.94;;;8.21;59.22
50977;BME280;36992;48.200;12.418;2023-02-04T00:52:19;97482.31;;;8.20;59.03
50977;BME280;36992;48.200;12.418;2023-02-04T00:54:46;97483.94;;;8.21;58.64
50977;BME280;36992;48.200;12.418;2023-02-04T00:57:12;97488.22;;;8.22;58.53
50977;BME280;36992;48.200;12.418;2023-02-04T00:59:39;97507.31;;;8.26;58.14
50977;BME280;36992;48.200;12.418;2023-02-04T01:02:05;97511.34;;;8.29;57.76
50977;BME280;36992;48.200;12.418;2023-02-04T01:04:32;97511.84;;;8.26;57.45
50977;BME280;36992;48.200;12.418;2023-02-04T01:06:58;97514.03;;;8.29;57.17
50977;BME280;36992;48.200;12.418;2023-02-04T01:09:26;97511.84;;;8.26;56.48
50977;BME280;36992;48.200;12.418;2023-02-04T01:11:53;97516.72;;;8.29;55.97
50977;BME280;36992;48.200;12.418;2023-02-04T01:14:19;97532.31;;;8.32;55.96
50977;BME280;36992;48.200;12.418;2023-02-04T01:16:46;97542.50;;;8.30;55.67
50977;BME280;36992;48.200;12.418;2023-02-04T01:19:13;97524.25;;;8.27;55.57
50977;BME280;36992;48.200;12.418;2023-02-04T01:21:39;97524.25;;;8.27;55.52
50977;BME280;36992;48.200;12.418;2023-02-04T01:24:06;97529.06;;;8.30;55.69
50977;BME280;36992;48.200;12.418;2023-02-04T01:26:34;97530.69;;;8.31;55.75
50977;BME280;36992;48.200;12.418;2023-02-04T01:29:01;97526.94;;;8.32;55.42
50977;BME280;36992;48.200;12.418;2023-02-04T01:31:27;97526.16;;;8.31;55.41
50977;BME280;36992;48.200;12.418;2023-02-04T01:33:55;97533.66;;;8.29;55.66
50977;BME280;36992;48.200;12.418;2023-02-04T01:36:22;97531.50;;;8.31;55.41
50977;BME280;36992;48.200;12.418;2023-02-04T01:38:48;97536.06;;;8.31;55.36
50977;BME280;36992;48.200;12.418;2023-02-04T01:41:16;97542.75;;;8.28;54.96
50977;BME280;36992;48.200;12.418;2023-02-04T01:43:44;97546.00;;;8.30;55.02
50977;BME280;36992;48.200;12.418;2023-02-04T01:46:11;97550.81;;;8.28;55.09
50977;BME280;36992;48.200;12.418;2023-02-04T01:48:38;97548.94;;;8.29;54.90
50977;BME280;36992;48.200;12.418;2023-02-04T01:51:07;97556.75;;;8.30;54.64
50977;BME280;36992;48.200;12.418;2023-02-04T01:53:35;97554.56;;;8.27;54.53
50977;BME280;36992;48.200;12.418;2023-02-04T01:56:13;97548.69;;;8.30;54.98
50977;BME280;36992;48.200;12.418;2023-02-04T01:58:40;97553.19;;;8.24;54.74
50977;BME280;36992;48.200;12.418;2023-02-04T02:01:12;97545.41;;;8.23;54.67
50977;BME280;36992;48.200;12.418;2023-02-04T02:03:39;97538.13;;;8.18;54.38
50977;BME280;36992;48.200;12.418;2023-02-04T02:06:08;97546.16;;;8.18;54.27
50977;BME280;36992;48.200;12.418;2023-02-04T02:08:36;97539.72;;;8.19;54.21
50977;BME280;36992;48.200;12.418;2023-02-04T02:11:03;97545.63;;;8.16;54.23
50977;BME280;36992;48.200;12.418;2023-02-04T02:13:29;97551.22;;;8.15;53.99
50977;BME280;36992;48.200;12.418;2023-02-04T02:15:56;97549.88;;;8.12;53.85
50977;BME280;36992;48.200;12.418;2023-02-04T02:18:24;97550.16;;;8.16;54.23
50977;BME280;36992;48.200;12.418;2023-02-04T02:20:50;97554.44;;;8.12;54.12
50977;BME280;36992;48.200;12.418;2023-02-04T02:23:21;97564.91;;;8.13;53.73
50977;BME280;36992;48.200;12.418;2023-02-04T02:25:52;97561.91;;;8.09;53.78
50977;BME280;36992;48.200;12.418;2023-02-04T02:28:20;97573.47;;;8.10;53.58
50977;BME280;36992;48.200;12.418;2023-02-04T02:30:49;97577.22;;;8.09;53.60
50977;BME280;36992;48.200;12.418;2023-02-04T02:33:18;97579.38;;;8.12;53.45
50977;BME280;36992;48.200;12.418;2023-02-04T02:35:46;97577.66;;;8.01;52.80
50977;BME280;36992;48.200;12.418;2023-02-04T02:38:14;97584.72;;;8.07;52.71
50977;BME280;36992;48.200;12.418;2023-02-04T02:40:42;97595.13;;;8.03;52.24
50977;BME280;36992;48.200;12.418;2023-02-04T02:43:13;97597.56;;;8.05;52.02
50977;BME280;36992;48.200;12.418;2023-02-04T02:45:40;97599.19;;;8.06;51.72
50977;BME280;36992;48.200;12.418;2023-02-04T02:48:08;97610.50;;;8.08;51.71
50977;BME280;36992;48.200;12.418;2023-02-04T02:50:35;97622.78;;;8.04;51.53
50977;BME280;36992;48.200;12.418;2023-02-04T02:53:02;97623.09;;;8.07;51.76
50977;BME280;36992;48.200;12.418;2023-02-04T02:55:30;97624.97;;;8.07;51.63
50977;BME280;36992;48.200;12.418;2023-02-04T02:57:57;97622.28;;;8.07;51.79
50977;BME280;36992;48.200;12.418;2023-02-04T03:00:27;97621.78;;;8.10;52.28
50977;BME280;36992;48.200;12.418;2023-02-04T03:02:59;97627.16;;;8.10;52.36
50977;BME280;36992;48.200;12.418;2023-02-04T03:05:29;97628.22;;;8.09;52.76
50977;BME280;36992;48.200;12.418;2023-02-04T03:07:58;97637.88;;;8.10;52.79
50977;BME280;36992;48.200;12.418;2023-02-04T03:10:25;97644.63;;;8.13;52.72
50977;BME280;36992;48.200;12.418;2023-02-04T03:12:51;97649.16;;;8.12;52.85
50977;BME280;36992;48.200;12.418;2023-02-04T03:15:19;97652.69;;;8.13;52.71
50977;BME280;36992;48.200;12.418;2023-02-04T03:17:47;97651.34;;;8.15;52.26
50977;BME280;36992;48.200;12.418;2023-02-04T03:20:16;97648.69;;;8.15;52.52
50977;BME280;36992;48.200;12.418;2023-02-04T03:22:42;97653.16;;;8.09;51.96
50977;BME280;36992;48.200;12.418;2023-02-04T03:25:09;97663.41;;;8.13;52.12
50977;BME280;36992;48.200;12.418;2023-02-04T03:27:36;97672.53;;;8.12;51.43
50977;BME280;36992;48.200;12.418;2023-02-04T03:30:04;97683.00;;;8.13;51.16
50977;BME280;36992;48.200;12.418;2023-02-04T03:32:30;97683.00;;;8.13;50.67
50977;BME280;36992;48.200;12.418;2023-02-04T03:34:58;97682.44;;;8.11;50.51
50977;BME280;36992;48.200;12.418;2023-02-04T03:37:25;97695.63;;;8.13;50.44
50977;BME280;36992;48.200;12.418;2023-02-04T03:39:51;97701.78;;;8.13;50.08
50977;BME280;36992;48.200;12.418;2023-02-04T03:42:18;97698.78;;;8.09;48.88
50977;BME280;36992;48.200;12.418;2023-02-04T03:44:44;97693.19;;;8.11;49.43
50977;BME280;36992;48.200;12.418;2023-02-04T03:47:11;97710.84;;;8.07;48.23
50977;BME280;36992;48.200;12.418;2023-02-04T03:49:37;97705.75;;;8.05;48.12
50977;BME280;36992;48.200;12.418;2023-02-04T03:52:05;97726.69;;;8.08;48.02
50977;BME280;36992;48.200;12.418;2023-02-04T03:54:32;97724.25;;;8.07;47.88
50977;BME280;36992;48.200;12.418;2023-02-04T03:56:58;97721.56;;;8.07;48.09
50977;BME280;36992;48.200;12.418;2023-02-04T03:59:25;97739.88;;;8.10;48.27
50977;BME280;36992;48.200;12.418;2023-02-04T04:01:51;97737.13;;;8.05;47.85
50977;BME280;36992;48.200;12.418;2023-02-04T04:04:18;97746.53;;;8.07;48.75
50977;BME280;36992;48.200;12.418;2023-02-04T04:06:45;97737.13;;;8.05;48.26
50977;BME280;36992;48.200;12.418;2023-02-04T04:09:12;97739.25;;;8.03;47.82
50977;BME280;36992;48.200;12.418;2023-02-04T04:11:39;97739.25;;;8.03;48.13
50977;BME280;36992;48.200;12.418;2023-02-04T04:14:05;97749.97;;;8.03;48.33
50977;BME280;36992;48.200;12.418;2023-02-04T04:16:32;97746.16;;;7.99;48.08
50977;BME280;36992;48.200;12.418;2023-02-04T04:18:58;97746.47;;;8.02;48.74
50977;BME280;36992;48.200;12.418;2023-02-04T04:21:25;97754.97;;;7.94;47.95
50977;BME280;36992;48.200;12.418;2023-02-04T04:23:51;97763.09;;;7.99;48.23
50977;BME280;36992;48.200;12.418;2023-02-04T04:26:19;97762.81;;;8.01;48.46
50977;BME280;36992;48.200;12.418;2023-02-04T04:28:46;97757.13;;;7.97;48.19
50977;BME280;36992;48.200;12.418;2023-02-04T04:31:12;97767.88;;;7.97;48.47
50977;BME280;36992;48.200;12.418;2023-02-04T04:33:39;97777.81;;;7.96;48.37
50977;BME280;36992;48.200;12.418;2023-02-04T04:36:06;97777.81;;;7.96;48.18
50977;BME280;36992;48.200;12.418;2023-02-04T04:38:33;97775.63;;;7.93;48.49
50977;BME280;36992;48.200;12.418;2023-02-04T04:41:00;97775.31;;;7.90;48.29
50977;BME280;36992;48.200;12.418;2023-02-04T04:43:27;97775.88;;;7.92;48.41
50977;BME280;36992;48.200;12.418;2023-02-04T04:45:54;97785.25;;;7.89;48.24
50977;BME280;36992;48.200;12.418;2023-02-04T04:48:21;97788.47;;;7.91;48.34
50977;BME280;36992;48.200;12.418;2023-02-04T04:50:48;97796.53;;;7.91;48.32
50977;BME280;36992;48.200;12.418;2023-02-04T04:53:14;97794.09;;;7.90;48.23
50977;BME280;36992;48.200;12.418;2023-02-04T04:55:41;97792.47;;;7.89;48.02
50977;BME280;36992;48.200;12.418;2023-02-04T04:58:07;97798.66;;;7.89;48.24
50977;BME280;36992;48.200;12.418;2023-02-04T05:00:35;97804.81;;;7.90;47.88
50977;BME280;36992;48.200;12.418;2023-02-04T05:03:01;97813.13;;;7.88;48.29
50977;BME280;36992;48.200;12.418;2023-02-04T05:05:28;97809.88;;;7.86;48.66
50977;BME280;36992;48.200;12.418;2023-02-04T05:07:54;97817.66;;;7.88;48.54
50977;BME280;36992;48.200;12.418;2023-02-04T05:10:21;97815.75;;;7.83;48.72
50977;BME280;36992;48.200;12.418;2023-02-04T05:12:48;97807.41;;;7.85;48.87
50977;BME280;36992;48.200;12.418;2023-02-04T05:15:14;97821.09;;;7.83;48.79
50977;BME280;36992;48.200;12.418;2023-02-04T05:17:42;97822.72;;;7.84;48.87
50977;BME280;36992;48.200;12.418;2023-02-04T05:20:09;97835.00;;;7.80;49.25
50977;BME280;36992;48.200;12.418;2023-02-04T05:22:36;97837.19;;;7.83;49.32
50977;BME280;36992;48.200;12.418;2023-02-04T05:25:03;97846.56;;;7.80;49.09
50977;BME280;36992;48.200;12.418;2023-02-04T05:27:29;97843.56;;;7.77;49.17
50977;BME280;36992;48.200;12.418;2023-02-04T05:29:56;97842.25;;;7.79;49.72
50977;BME280;36992;48.200;12.418;2023-02-04T05:32:23;97840.59;;;7.78;49.76
50977;BME280;36992;48.200;12.418;2023-02-04T05:34:50;97848.66;;;7.78;49.69
50977;BME280;36992;48.200;12.418;2023-02-04T05:37:17;97837.91;;;7.78;49.84
50977;BME280;36992;48.200;12.418;2023-02-04T05:39:45;97852.97;;;7.79;49.86
50977;BME280;36992;48.200;12.418;2023-02-04T05:42:11;97853.69;;;7.75;50.12
50977;BME280;36992;48.200;12.418;2023-02-04T05:44:38;97857.19;;;7.75;49.74
50977;BME280;36992;48.200;12.418;2023-02-04T05:47:04;97867.09;;;7.75;49.64
50977;BME280;36992;48.200;12.418;2023-02-04T05:49:31;97879.47;;;7.76;49.60
50977;BME280;36992;48.200;12.418;2023-02-04T05:51:59;97889.94;;;7.77;49.62
50977;BME280;36992;48.200;12.418;2023-02-04T05:54:26;97886.47;;;7.77;49.86
50977;BME280;36992;48.200;12.418;2023-02-04T05:56:52;97888.56;;;7.75;50.03
50977;BME280;36992;48.200;12.418;2023-02-04T05:59:19;97889.38;;;7.75;50.15
50977;BME280;36992;48.200;12.418;2023-02-04T06:01:45;97899.28;;;7.75;50.24
50977;BME280;36992;48.200;12.418;2023-02-04T06:04:12;97895.81;;;7.74;50.64
50977;BME280;36992;48.200;12.418;2023-02-04T06:06:39;97898.25;;;7.76;50.69
50977;BME280;36992;48.200;12.418;2023-02-04T06:09:07;97898.25;;;7.76;50.71
50977;BME280;36992;48.200;12.418;2023-02-04T06:11:34;97899.78;;;7.72;50.53
50977;BME280;36992;48.200;12.418;2023-02-04T06:14:00;97905.63;;;7.68;50.72
50977;BME280;36992;48.200;12.418;2023-02-04T06:16:27;97915.81;;;7.66;50.87
50977;BME280;36992;48.200;12.418;2023-02-04T06:18:53;97924.66;;;7.67;50.77
50977;BME280;36992;48.200;12.418;2023-02-04T06:21:20;97929.22;;;7.66;50.80
50977;BME280;36992;48.200;12.418;2023-02-04T06:23:46;97920.34;;;7.66;50.61
50977;BME280;36992;48.200;12.418;2023-02-04T06:26:14;97919.31;;;7.67;50.54
50977;BME280;36992;48.200;12.418;2023-02-04T06:28:41;97928.38;;;7.66;50.32
50977;BME280;36992;48.200;12.418;2023-02-04T06:31:07;97936.09;;;7.62;50.39
50977;BME280;36992;48.200;12.418;2023-02-04T06:33:34;97944.75;;;7.64;50.45
50977;BME280;36992;48.200;12.418;2023-02-04T06:36:01;97950.66;;;7.66;50.44
50977;BME280;36992;48.200;12.418;2023-02-04T06:38:27;97954.41;;;7.65;50.21
50977;BME280;36992;48.200;12.418;2023-02-04T06:40:54;97963.50;;;7.64;50.26
50977;BME280;36992;48.200;12.418;2023-02-04T06:43:22;97964.63;;;7.68;50.18
50977;BME280;36992;48.200;12.418;2023-02-04T06:45:49;97965.13;;;7.65;49.99
50977;BME280;36992;48.200;12.418;2023-02-04T06:48:16;97966.75;;;7.66;50.14
50977;BME280;36992;48.200;12.418;2023-02-04T06:50:43;97977.25;;;7.68;49.88
50977;BME280;36992;48.200;12.418;2023-02-04T06:53:09;97979.28;;;7.61;49.95
50977;BME280;36992;48.200;12.418;2023-02-04T06:55:36;97989.75;;;7.62;49.09
50977;BME280;36992;48.200;12.418;2023-02-04T06:58:02;97987.06;;;7.62;49.27
50977;BME280;36992;48.200;12.418;2023-02-04T07:00:30;97984.38;;;7.62;49.54
50977;BME280;36992;48.200;12.418;2023-02-04T07:02:57;97988.72;;;7.63;49.33
50977;BME280;36992;48.200;12.418;2023-02-04T07:05:24;97987.06;;;7.62;49.53
50977;BME280;36992;48.200;12.418;2023-02-04T07:07:51;97997.56;;;7.64;49.54
50977;BME280;36992;48.200;12.418;2023-02-04T07:10:18;97996.66;;;7.58;49.38
50977;BME280;36992;48.200;12.418;2023-02-04T07:12:45;97998.53;;;7.58;50.02
50977;BME280;36992;48.200;12.418;2023-02-04T07:15:12;98007.94;;;7.60;49.54
50977;BME280;36992;48.200;12.418;2023-02-04T07:17:39;98009.47;;;7.56;49.88
50977;BME280;36992;48.200;12.418;2023-02-04T07:20:07;98012.75;;;7.58;49.49
50977;BME280;36992;48.200;12.418;2023-02-04T07:22:34;98006.56;;;7.58;49.72
50977;BME280;36992;48.200;12.418;2023-02-04T07:25:01;98016.50;;;7.57;49.79
50977;BME280;36992;48.200;12.418;2023-02-04T07:27:27;98015.09;;;7.54;50.00
50977;BME280;36992;48.200;12.418;2023-02-04T07:29:54;98010.53;;;7.55;50.39
50977;BME280;36992;48.200;12.418;2023-02-04T07:32:20;98009.47;;;7.56;50.49
50977;BME280;36992;48.200;12.418;2023-02-04T07:34:48;98012.75;;;7.58;50.51
50977;BME280;36992;48.200;12.418;2023-02-04T07:37:14;98005.78;;;7.57;50.78
50977;BME280;36992;48.200;12.418;2023-02-04T07:39:41;98000.03;;;7.53;50.84
50977;BME280;36992;48.200;12.418;2023-02-04T07:42:07;98019.63;;;7.54;51.16
50977;BME280;36992;48.200;12.418;2023-02-04T07:44:34;98029.81;;;7.52;50.95
50977;BME280;36992;48.200;12.418;2023-02-04T07:47:01;98040.53;;;7.52;50.98
50977;BME280;36992;48.200;12.418;2023-02-04T07:49:28;98036.47;;;7.49;51.17
50977;BME280;36992;48.200;12.418;2023-02-04T07:51:56;98057.41;;;7.52;51.16
50977;BME280;36992;48.200;12.418;2023-02-04T07:54:23;98055.00;;;7.51;50.99
50977;BME280;36992;48.200;12.418;2023-02-04T07:56:49;98058.25;;;7.53;51.12
50977;BME280;36992;48.200;12.418;2023-02-04T07:59:16;98066.28;;;7.53;51.56
50977;BME280;36992;48.200;12.418;2023-02-04T08:01:42;98083.91;;;7.49;51.34
50977;BME280;36992;48.200;12.418;2023-02-04T08:04:09;98109.19;;;7.53;51.30
50977;BME280;36992;48.200;12.418;2023-02-04T08:06:35;98124.22;;;7.54;51.60
50977;BME280;36992;48.200;12.418;2023-02-04T08:09:03;98138.69;;;7.53;51.44
50977;BME280;36992;48.200;12.418;2023-02-04T08:11:29;98155.25;;;7.50;51.07
50977;BME280;36992;48.200;12.418;2023-02-04T08:13:56;98162.38;;;7.44;50.67
50977;BME280;36992;48.200;12.418;2023-02-04T08:16:22;98163.44;;;7.31;51.10
50977;BME280;36992;48.200;12.418;2023-02-04T08:18:49;98171.16;;;7.15;51.37
50977;BME280;36992;48.200;12.418;2023-02-04T08:21:15;98170.34;;;7.03;52.08
50977;BME280;36992;48.200;12.418;2023-02-04T08:23:42;98169.28;;;6.92;52.81
50977;BME280;36992;48.200;12.418;2023-02-04T08:26:10;98172.06;;;6.85;52.93
50977;BME280;36992;48.200;12.418;2023-02-04T08:28:37;98172.41;;;6.77;53.18
50977;BME280;36992;48.200;12.418;2023-02-04T08:31:04;98167.28;;;6.75;53.05
50977;BME280;36992;48.200;12.418;2023-02-04T08:33:31;98175.53;;;6.74;53.42
50977;BME280;36992;48.200;12.418;2023-02-04T08:35:57;98172.28;;;6.72;53.38
50977;BME280;36992;48.200;12.418;2023-02-04T08:38:24;98176.00;;;6.71;53.42
50977;BME280;36992;48.200;12.418;2023-02-04T08:40:50;98169.84;;;6.70;53.29
50977;BME280;36992;48.200;12.418;2023-02-04T08:43:18;98179.75;;;6.70;53.14
50977;BME280;36992;48.200;12.418;2023-02-04T08:45:45;98181.25;;;6.66;53.31
50977;BME280;36992;48.200;12.418;2023-02-04T08:48:20;98183.34;;;6.64;53.86
50977;BME280;36992;48.200;12.418;2023-02-04T08:50:47;98181.09;;;6.60;53.90
50977;BME280;36992;48.200;12.418;2023-02-04T08:53:13;98195.31;;;6.61;53.75
50977;BME280;36992;48.200;12.418;2023-02-04T08:55:40;98208.94;;;6.59;53.88
50977;BME280;36992;48.200;12.418;2023-02-04T08:58:06;98212.06;;;6.56;53.78
50977;BME280;36992;48.200;12.418;2023-02-04T09:00:34;98211.25;;;6.56;53.70
50977;BME280;36992;48.200;12.418;2023-02-04T09:03:01;98224.06;;;6.54;53.57
50977;BME280;36992;48.200;12.418;2023-02-04T09:05:27;98224.88;;;6.54;53.18
50977;BME280;36992;48.200;12.418;2023-02-04T09:07:54;98230.69;;;6.51;53.98
50977;BME280;36992;48.200;12.418;2023-02-04T09:10:20;98229.03;;;6.50;54.17
50977;BME280;36992;48.200;12.418;2023-02-04T09:12:47;98223.69;;;6.50;54.15
50977;BME280;36992;48.200;12.418;2023-02-04T09:15:13;98225.56;;;6.50;54.31
50977;BME280;36992;48.200;12.418;2023-02-04T09:17:41;98223.03;;;6.55;53.62
50977;BME280;36992;48.200;12.418;2023-02-04T09:20:09;98224.88;;;6.54;53.86
50977;BME280;36992;48.200;12.418;2023-02-04T09:22:36;98223.25;;;6.53;53.86
50977;BME280;36992;48.200;12.418;2023-02-04T09:25:02;98224.06;;;6.54;54.15
50977;BME280;36992;48.200;12.418;2023-02-04T09:27:29;98229.16;;;6.55;53.78
50977;BME280;36992;48.200;12.418;2023-02-04T09:29:55;98235.56;;;6.54;53.94
50977;BME280;36992;48.200;12.418;2023-02-04T09:32:22;98245.50;;;6.54;53.91
50977;BME280;36992;48.200;12.418;2023-02-04T09:34:50;98263.97;;;6.55;53.95
50977;BME280;36992;48.200;12.418;2023-02-04T09:37:17;98261.56;;;6.54;53.97
50977;BME280;36992;48.200;12.418;2023-02-04T09:39:43;98274.13;;;6.53;53.96
50977;BME280;36992;48.200;12.418;2023-02-04T09:42:12;98274.69;;;6.55;54.38
50977;BME280;36992;48.200;12.418;2023-02-04T09:44:40;98286.66;;;6.53;54.48
50977;BME280;36992;48.200;12.418;2023-02-04T09:47:10;98286.22;;;6.56;53.92
50977;BME280;36992;48.200;12.418;2023-02-04T09:49:37;98280.50;;;6.52;54.50
50977;BME280;36992;48.200;12.418;2023-02-04T09:52:09;98286.00;;;6.57;54.11
50977;BME280;36992;48.200;12.418;2023-02-04T09:54:37;98297.75;;;6.56;53.89
50977;BME280;36992;48.200;12.418;2023-02-04T09:57:11;98297.88;;;6.61;53.96
50977;BME280;36992;48.200;12.418;2023-02-04T09:59:39;98300.56;;;6.61;54.42
50977;BME280;36992;48.200;12.418;2023-02-04T10:02:17;98289.41;;;6.65;53.38
50977;BME280;36992;48.200;12.418;2023-02-04T10:04:45;98295.56;;;6.65;53.32
50977;BME280;36992;48.200;12.418;2023-02-04T10:07:21;98291.03;;;6.66;53.38
50977;BME280;36992;48.200;12.418;2023-02-04T10:09:50;98293.13;;;6.64;53.71
50977;BME280;36992;48.200;12.418;2023-02-04T10:12:17;98301.75;;;6.66;53.22
50977;BME280;36992;48.200;12.418;2023-02-04T10:14:43;98293.13;;;6.64;54.05
50977;BME280;36992;48.200;12.418;2023-02-04T10:17:11;98286.47;;;6.66;53.49
50977;BME280;36992;48.200;12.418;2023-02-04T10:19:39;98289.16;;;6.66;53.07
50977;BME280;36992;48.200;12.418;2023-02-04T10:22:21;98290.56;;;6.69;53.34
50977;BME280;36992;48.200;12.418;2023-02-04T10:24:52;98287.31;;;6.67;53.87
50977;BME280;36992;48.200;12.418;2023-02-04T10:27:18;98288.94;;;6.68;54.38
50977;BME280;36992;48.200;12.418;2023-02-04T10:29:54;98294.44;;;6.73;53.77
50977;BME280;36992;48.200;12.418;2023-02-04T10:32:24;98297.97;;;6.85;52.97
50977;BME280;36992;48.200;12.418;2023-02-04T10:34:56;98306.91;;;6.79;54.13
50977;BME280;36992;48.200;12.418;2023-02-04T10:37:25;98310.66;;;6.78;54.60
50977;BME280;36992;48.200;12.418;2023-02-04T10:39:51;98303.66;;;6.77;53.72
50977;BME280;36992;48.200;12.418;2023-02-04T10:42:22;98311.84;;;6.82;54.29
50977;BME280;36992;48.200;12.418;2023-02-04T10:44:50;98305.66;;;6.82;53.95
50977;BME280;36992;48.200;12.418;2023-02-04T10:47:19;98308.69;;;6.85;53.38
50977;BME280;36992;48.200;12.418;2023-02-04T10:49:53;98305.91;;;6.92;52.26
50977;BME280;36992;48.200;12.418;2023-02-04T10:52:21;98315.81;;;6.92;51.80
50977;BME280;36992;48.200;12.418;2023-02-04T10:54:50;98305.66;;;6.94;51.48
50977;BME280;36992;48.200;12.418;2023-02-04T10:57:19;98297.88;;;6.92;51.49
50977;BME280;36992;48.200;12.418;2023-02-04T10:59:47;98296.00;;;6.93;50.39
50977;BME280;36992;48.200;12.418;2023-02-04T11:02:40;98306.41;;;7.01;51.24
50977;BME280;36992;48.200;12.418;2023-02-04T11:05:11;98298.81;;;6.98;49.57
50977;BME280;36992;48.200;12.418;2023-02-04T11:07:38;98300.56;;;6.92;49.15
50977;BME280;36992;48.200;12.418;2023-02-04T11:10:11;98302.06;;;7.00;49.76
50977;BME280;36992;48.200;12.418;2023-02-04T11:12:40;98299.88;;;6.97;48.91
50977;BME280;36992;48.200;12.418;2023-02-04T11:15:38;98306.16;;;7.02;49.68
50977;BME280;36992;48.200;12.418;2023-02-04T11:18:06;98302.06;;;7.00;49.03
50977;BME280;36992;48.200;12.418;2023-02-04T11:20:34;98307.22;;;7.01;48.74
50977;BME280;36992;48.200;12.418;2023-02-04T11:23:30;98311.50;;;7.02;49.28
50977;BME280;36992;48.200;12.418;2023-02-04T11:26:03;98306.16;;;7.02;49.34
50977;BME280;36992;48.200;12.418;2023-02-04T11:28:39;98305.34;;;7.02;48.59
50977;BME280;36992;48.200;12.418;2023-02-04T11:31:22;98301.41;;;7.05;48.95
50977;BME280;36992;48.200;12.418;2023-02-04T11:34:05;98303.97;;;7.11;49.66
50977;BME280;36992;48.200;12.418;2023-02-04T11:36:32;98290.44;;;7.06;47.89
50977;BME280;36992;48.200;12.418;2023-02-04T11:39:06;98297.56;;;7.12;48.51
50977;BME280;36992;48.200;12.418;2023-02-04T11:41:34;98299.22;;;7.13;48.13
50977;BME280;36992;48.200;12.418;2023-02-04T11:44:01;98294.06;;;7.12;47.89
50977;BME280;36992;48.200;12.418;2023-02-04T11:46:28;98302.91;;;7.12;48.35
50977;BME280;36992;48.200;12.418;2023-02-04T11:48:56;98302.91;;;7.12;48.20
50977;BME280;36992;48.200;12.418;2023-02-04T11:51:29;98301.91;;;7.13;47.33
50977;BME280;36992;48.200;12.418;2023-02-04T11:53:55;98308.41;;;7.18;47.17
50977;BME280;36992;48.200;12.418;2023-02-04T11:56:22;98312.72;;;7.19;46.94
50977;BME280;36992;48.200;12.418;2023-02-04T11:58:50;98313.31;;;7.21;47.28
50977;BME280;36992;48.200;12.418;2023-02-04T12:01:22;98312.84;;;7.24;45.73
50977;BME280;36992;48.200;12.418;2023-02-04T12:03:56;98305.03;;;7.22;46.17
50977;BME280;36992;48.200;12.418;2023-02-04T12:06:25;98302.59;;;7.21;45.89
50977;BME280;36992;48.200;12.418;2023-02-04T12:08:51;98300.28;;;7.24;46.58
50977;BME280;36992;48.200;12.418;2023-02-04T12:11:26;98294.22;;;7.29;46.09
50977;BME280;36992;48.200;12.418;2023-02-04T12:13:57;98291.53;;;7.29;46.18
50977;BME280;36992;48.200;12.418;2023-02-04T12:16:24;98291.53;;;7.29;45.26
50977;BME280;36992;48.200;12.418;2023-02-04T12:18:51;98291.53;;;7.29;44.85
50977;BME280;36992;48.200;12.418;2023-02-04T12:21:17;98295.84;;;7.30;45.23
50977;BME280;36992;48.200;12.418;2023-02-04T12:23:44;98290.25;;;7.32;45.30
50977;BME280;36992;48.200;12.418;2023-02-04T12:26:10;98297.00;;;7.34;44.42
50977;BME280;36992;48.200;12.418;2023-02-04T12:28:37;98293.28;;;7.35;44.29
50977;BME280;36992;48.200;12.418;2023-02-04T12:31:05;98296.53;;;7.37;43.50
50977;BME280;36992;48.200;12.418;2023-02-04T12:33:31;98294.09;;;7.36;44.35
50977;BME280;36992;48.200;12.418;2023-02-04T12:35:58;98290.81;;;7.34;44.14
50977;BME280;36992;48.200;12.418;2023-02-04T12:38:24;98285.00;;;7.37;43.73
50977;BME280;36992;48.200;12.418;2023-02-04T12:40:51;98288.50;;;7.37;44.46
50977;BME280;36992;48.200;12.418;2023-02-04T12:43:18;98293.84;;;7.37;43.21
50977;BME280;36992;48.200;12.418;2023-02-04T12:45:44;98294.22;;;7.41;43.75
50977;BME280;36992;48.200;12.418;2023-02-04T12:48:15;98292.94;;;7.43;44.19
50977;BME280;36992;48.200;12.418;2023-02-04T12:50:41;98288.84;;;7.41;43.74
50977;BME280;36992;48.200;12.418;2023-02-04T12:53:08;98274.63;;;7.40;45.76
50977;BME280;36992;48.200;12.418;2023-02-04T12:55:35;98277.91;;;7.42;43.27
50977;BME280;36992;48.200;12.418;2023-02-04T12:58:02;98279.53;;;7.43;43.87
50977;BME280;36992;48.200;12.418;2023-02-04T13:00:29;98281.19;;;7.45;43.56
50977;BME280;36992;48.200;12.418;2023-02-04T13:02:55;98288.16;;;7.46;43.67